This is the latest recevied weather packets stored in our database for station/object OE-11121. If no packets are shown the sender has not sent any weather packets the latest 10 day(s).
| Time | Temp. | Humidity | Pressure | Rain* | Wind** | Luminosity | Snow |
|---|---|---|---|---|---|---|---|
| 1787991106 | 17.78° C | 75% | 1018.9 hPa | 0 mm | - | 721 W/m² | - |
| 1787990732 | 17.22° C | 80% | 1019.1 hPa | 0 mm | - | 397 W/m² | - |
| 1787990133 | 16.67° C | 80% | 1019.3 hPa | 0 mm | - | 457 W/m² | - |
| 1787989305 | 15.56° C | 82% | 1019.6 hPa | 0 mm | - | 228 W/m² | - |
| 1787988332 | 15° C | 86% | 1019.8 hPa | 0 mm | - | 132 W/m² | - |
| 1787987506 | 15° C | 87% | 1019.9 hPa | 0 mm | - | 108 W/m² | - |
| 1787987133 | 14.44° C | 86% | 1019.9 hPa | 0 mm | - | 84 W/m² | - |
| 1787986533 | 15° C | 85% | 1019.8 hPa | 0 mm | - | 84 W/m² | - |
| 1787985706 | 15° C | 85% | 1019.7 hPa | 0 mm | - | 180 W/m² | - |
| 1787985332 | 14.44° C | 88% | 1019.8 hPa | 0 mm | - | 132 W/m² | - |
| 1787984733 | 14.44° C | 90% | 1019.9 hPa | 0 mm | - | 96 W/m² | - |
| 1787983906 | 13.89° C | 92% | 1019.8 hPa | 0 mm | - | 60 W/m² | - |
| 1787982933 | 13.89° C | 92% | 1019.7 hPa | 0 mm | - | 36 W/m² | - |
| 1787982106 | 13.89° C | 93% | 1019.8 hPa | 0 mm | - | 24 W/m² | - |
| 1787981733 | 13.89° C | 93% | 1019.8 hPa | 0 mm | - | 24 W/m² | - |
| 1787981132 | 13.33° C | 93% | 1019.8 hPa | 0 mm | - | 24 W/m² | - |
| 1787980305 | 13.33° C | 93% | 1019.7 hPa | 0 mm | - | 12 W/m² | - |
| 1787979932 | 13.33° C | 93% | 1019.5 hPa | 0 mm | - | 12 W/m² | - |
| 1787979333 | 13.33° C | 92% | 1019.5 hPa | 0 mm | - | 0 W/m² | - |
| 1787978506 | 13.89° C | 92% | 1019.4 hPa | 0 mm | - | 0 W/m² | - |
| 1787978132 | 13.33° C | 92% | 1019.4 hPa | 0 mm | - | 0 W/m² | - |
| 1787977533 | 13.89° C | 92% | 1019.4 hPa | 0 mm | - | 0 W/m² | - |
| 1787976706 | 13.33° C | 93% | 1019.4 hPa | 0 mm | - | 0 W/m² | - |
| 1787976333 | 13.33° C | 93% | 1019.5 hPa | 0 mm | - | 0 W/m² | - |
| 1787975733 | 13.89° C | 93% | 1019.4 hPa | 0 mm | - | 0 W/m² | - |
* Rain latest hour (hover to see other rain measurements)
** Current wind speed in m/s (hover to see current wind gust speed)